sensor_id;sensor_type;location;lat;lon;timestamp;temperature;humidity
59067;DHT22;44854;50.838;4.438;2023-12-29T05:44:39;10.90;99.90
59067;DHT22;44854;50.838;4.438;2023-12-29T05:47:05;10.90;99.90
59067;DHT22;44854;50.838;4.438;2023-12-29T05:49:31;11.00;99.90
59067;DHT22;44854;50.838;4.438;2023-12-29T05:52:04;11.00;99.90
59067;DHT22;44854;50.838;4.438;2023-12-29T05:54:30;11.00;99.90
59067;DHT22;44854;50.838;4.438;2023-12-29T05:56:55;11.00;99.90
59067;DHT22;44854;50.838;4.438;2023-12-29T05:59:21;11.00;99.90
59067;DHT22;44854;50.838;4.438;2023-12-29T06:01:47;11.10;99.90
59067;DHT22;44854;50.838;4.438;2023-12-29T06:04:12;11.10;99.90
59067;DHT22;44854;50.838;4.438;2023-12-29T06:06:38;11.00;99.90
59067;DHT22;44854;50.838;4.438;2023-12-29T06:09:04;10.90;99.90
59067;DHT22;44854;50.838;4.438;2023-12-29T06:11:29;10.90;99.90
59067;DHT22;44854;50.838;4.438;2023-12-29T06:13:55;10.80;99.90
59067;DHT22;44854;50.838;4.438;2023-12-29T06:16:21;10.90;99.90
59067;DHT22;44854;50.838;4.438;2023-12-29T06:18:47;10.70;99.90
59067;DHT22;44854;50.838;4.438;2023-12-29T06:21:13;10.70;99.90
59067;DHT22;44854;50.838;4.438;2023-12-29T06:23:39;10.70;99.90
59067;DHT22;44854;50.838;4.438;2023-12-29T06:26:04;10.60;99.90
59067;DHT22;44854;50.838;4.438;2023-12-29T06:28:30;10.60;99.90
59067;DHT22;44854;50.838;4.438;2023-12-29T06:30:56;10.60;99.90
59067;DHT22;44854;50.838;4.438;2023-12-29T06:33:22;10.50;99.90
59067;DHT22;44854;50.838;4.438;2023-12-29T06:35:48;10.50;99.90
59067;DHT22;44854;50.838;4.438;2023-12-29T06:38:14;10.60;99.90
59067;DHT22;44854;50.838;4.438;2023-12-29T06:40:40;10.60;99.90
59067;DHT22;44854;50.838;4.438;2023-12-29T06:43:05;10.60;99.90
59067;DHT22;44854;50.838;4.438;2023-12-29T06:45:31;10.70;99.90
59067;DHT22;44854;50.838;4.438;2023-12-29T06:47:57;10.60;99.90
59067;DHT22;44854;50.838;4.438;2023-12-29T06:50:22;10.70;99.90
59067;DHT22;44854;50.838;4.438;2023-12-29T06:52:48;10.70;99.90
59067;DHT22;44854;50.838;4.438;2023-12-29T06:55:14;10.70;99.90
59067;DHT22;44854;50.838;4.438;2023-12-29T06:57:39;10.70;99.90
59067;DHT22;44854;50.838;4.438;2023-12-29T07:00:05;10.70;99.90
59067;DHT22;44854;50.838;4.438;2023-12-29T07:02:32;10.60;99.90
59067;DHT22;44854;50.838;4.438;2023-12-29T07:04:57;10.60;99.90
59067;DHT22;44854;50.838;4.438;2023-12-29T07:07:24;10.70;99.90
59067;DHT22;44854;50.838;4.438;2023-12-29T07:09:50;10.70;99.90
59067;DHT22;44854;50.838;4.438;2023-12-29T07:12:15;10.60;99.90
59067;DHT22;44854;50.838;4.438;2023-12-29T07:14:41;10.60;99.90
59067;DHT22;44854;50.838;4.438;2023-12-29T07:17:07;10.60;99.90
59067;DHT22;44854;50.838;4.438;2023-12-29T07:19:33;10.60;99.90
59067;DHT22;44854;50.838;4.438;2023-12-29T07:22:05;10.60;99.90
59067;DHT22;44854;50.838;4.438;2023-12-29T07:24:32;10.60;99.90
59067;DHT22;44854;50.838;4.438;2023-12-29T07:26:59;10.60;99.90
59067;DHT22;44854;50.838;4.438;2023-12-29T07:29:24;10.60;99.90
59067;DHT22;44854;50.838;4.438;2023-12-29T07:31:50;10.60;99.90
59067;DHT22;44854;50.838;4.438;2023-12-29T07:34:16;10.70;99.90
59067;DHT22;44854;50.838;4.438;2023-12-29T07:36:41;10.70;99.90
59067;DHT22;44854;50.838;4.438;2023-12-29T07:39:08;10.80;99.90
59067;DHT22;44854;50.838;4.438;2023-12-29T07:41:39;10.80;99.90
59067;DHT22;44854;50.838;4.438;2023-12-29T07:44:06;10.90;99.90
59067;DHT22;44854;50.838;4.438;2023-12-29T07:46:32;10.90;99.90
59067;DHT22;44854;50.838;4.438;2023-12-29T07:48:58;10.90;99.90
59067;DHT22;44854;50.838;4.438;2023-12-29T07:51:23;10.90;99.90
59067;DHT22;44854;50.838;4.438;2023-12-29T07:53:49;10.80;99.90
59067;DHT22;44854;50.838;4.438;2023-12-29T07:56:15;10.80;99.90
59067;DHT22;44854;50.838;4.438;2023-12-29T07:58:40;10.90;99.90
59067;DHT22;44854;50.838;4.438;2023-12-29T08:01:06;10.80;99.90
59067;DHT22;44854;50.838;4.438;2023-12-29T08:03:32;10.80;99.90
59067;DHT22;44854;50.838;4.438;2023-12-29T08:05:57;10.80;99.90
59067;DHT22;44854;50.838;4.438;2023-12-29T08:08:23;10.90;99.90
59067;DHT22;44854;50.838;4.438;2023-12-29T08:10:49;10.90;99.90
59067;DHT22;44854;50.838;4.438;2023-12-29T08:13:14;10.90;99.90
59067;DHT22;44854;50.838;4.438;2023-12-29T08:15:41;10.90;99.90
59067;DHT22;44854;50.838;4.438;2023-12-29T08:18:08;10.90;99.90
59067;DHT22;44854;50.838;4.438;2023-12-29T08:20:34;10.90;99.90
59067;DHT22;44854;50.838;4.438;2023-12-29T08:23:01;10.80;99.90
59067;DHT22;44854;50.838;4.438;2023-12-29T08:25:28;10.80;99.90
59067;DHT22;44854;50.838;4.438;2023-12-29T08:27:54;10.70;99.90
59067;DHT22;44854;50.838;4.438;2023-12-29T08:30:19;10.80;99.90
59067;DHT22;44854;50.838;4.438;2023-12-29T08:32:45;10.80;99.90
59067;DHT22;44854;50.838;4.438;2023-12-29T08:35:11;10.80;99.90
59067;DHT22;44854;50.838;4.438;2023-12-29T08:37:36;10.90;99.90
59067;DHT22;44854;50.838;4.438;2023-12-29T08:40:02;11.00;99.90
59067;DHT22;44854;50.838;4.438;2023-12-29T08:42:28;10.90;99.90
59067;DHT22;44854;50.838;4.438;2023-12-29T08:44:54;10.90;99.90
59067;DHT22;44854;50.838;4.438;2023-12-29T08:47:20;10.90;99.90
59067;DHT22;44854;50.838;4.438;2023-12-29T08:49:46;10.90;99.90
59067;DHT22;44854;50.838;4.438;2023-12-29T08:52:14;10.90;99.90
59067;DHT22;44854;50.838;4.438;2023-12-29T08:54:40;11.00;99.90
59067;DHT22;44854;50.838;4.438;2023-12-29T08:57:05;11.10;99.90
59067;DHT22;44854;50.838;4.438;2023-12-29T08:59:32;11.10;99.90
59067;DHT22;44854;50.838;4.438;2023-12-29T09:01:58;11.00;99.90
59067;DHT22;44854;50.838;4.438;2023-12-29T09:04:24;11.00;99.90
59067;DHT22;44854;50.838;4.438;2023-12-29T09:06:50;11.00;99.90
59067;DHT22;44854;50.838;4.438;2023-12-29T09:09:15;11.00;99.90
59067;DHT22;44854;50.838;4.438;2023-12-29T09:11:45;11.00;99.90
59067;DHT22;44854;50.838;4.438;2023-12-29T09:14:11;11.00;99.90
59067;DHT22;44854;50.838;4.438;2023-12-29T09:16:36;11.10;99.90
59067;DHT22;44854;50.838;4.438;2023-12-29T09:19:02;11.00;99.90
59067;DHT22;44854;50.838;4.438;2023-12-29T09:21:28;11.10;99.90
59067;DHT22;44854;50.838;4.438;2023-12-29T09:23:53;11.10;99.90
59067;DHT22;44854;50.838;4.438;2023-12-29T09:26:19;11.10;99.90
59067;DHT22;44854;50.838;4.438;2023-12-29T09:28:45;11.20;99.90
59067;DHT22;44854;50.838;4.438;2023-12-29T09:31:11;11.10;99.90
59067;DHT22;44854;50.838;4.438;2023-12-29T09:33:37;11.10;99.90
59067;DHT22;44854;50.838;4.438;2023-12-29T09:36:03;11.10;99.90
59067;DHT22;44854;50.838;4.438;2023-12-29T09:38:29;11.20;99.90
59067;DHT22;44854;50.838;4.438;2023-12-29T09:40:59;11.20;99.90
59067;DHT22;44854;50.838;4.438;2023-12-29T09:43:25;11.40;99.90
59067;DHT22;44854;50.838;4.438;2023-12-29T09:45:52;11.40;99.90
59067;DHT22;44854;50.838;4.438;2023-12-29T09:48:19;11.30;99.90
59067;DHT22;44854;50.838;4.438;2023-12-29T09:50:47;11.40;99.90
59067;DHT22;44854;50.838;4.438;2023-12-29T09:53:16;11.40;99.90
59067;DHT22;44854;50.838;4.438;2023-12-29T09:55:42;11.40;99.90
59067;DHT22;44854;50.838;4.438;2023-12-29T09:58:10;11.40;99.90
59067;DHT22;44854;50.838;4.438;2023-12-29T10:00:38;11.40;99.90
59067;DHT22;44854;50.838;4.438;2023-12-29T10:03:05;11.50;99.90
59067;DHT22;44854;50.838;4.438;2023-12-29T10:05:31;11.50;99.90
59067;DHT22;44854;50.838;4.438;2023-12-29T10:08:02;11.60;99.90
59067;DHT22;44854;50.838;4.438;2023-12-29T10:10:28;11.60;99.90
59067;DHT22;44854;50.838;4.438;2023-12-29T10:12:56;11.60;99.90
59067;DHT22;44854;50.838;4.438;2023-12-29T10:15:46;11.70;99.90
59067;DHT22;44854;50.838;4.438;2023-12-29T10:21:27;11.80;99.90
59067;DHT22;44854;50.838;4.438;2023-12-29T10:23:53;11.80;99.90
59067;DHT22;44854;50.838;4.438;2023-12-29T10:26:20;11.80;99.90
59067;DHT22;44854;50.838;4.438;2023-12-29T10:28:47;11.80;99.90
59067;DHT22;44854;50.838;4.438;2023-12-29T10:31:15;11.90;99.90
59067;DHT22;44854;50.838;4.438;2023-12-29T10:33:44;12.00;99.90
59067;DHT22;44854;50.838;4.438;2023-12-29T10:36:16;12.00;99.90
59067;DHT22;44854;50.838;4.438;2023-12-29T10:38:42;12.10;99.90
59067;DHT22;44854;50.838;4.438;2023-12-29T10:41:18;12.10;99.90
59067;DHT22;44854;50.838;4.438;2023-12-29T10:43:46;11.90;99.90
59067;DHT22;44854;50.838;4.438;2023-12-29T10:46:12;11.90;99.90
59067;DHT22;44854;50.838;4.438;2023-12-29T10:48:38;11.90;99.90
59067;DHT22;44854;50.838;4.438;2023-12-29T10:51:05;11.90;99.90
59067;DHT22;44854;50.838;4.438;2023-12-29T10:53:35;11.80;99.90
59067;DHT22;44854;50.838;4.438;2023-12-29T10:56:01;11.90;99.90
59067;DHT22;44854;50.838;4.438;2023-12-29T10:58:28;11.90;99.90
59067;DHT22;44854;50.838;4.438;2023-12-29T11:00:58;11.90;99.90
59067;DHT22;44854;50.838;4.438;2023-12-29T11:03:24;12.00;99.90
59067;DHT22;44854;50.838;4.438;2023-12-29T11:05:51;11.90;99.90
59067;DHT22;44854;50.838;4.438;2023-12-29T11:08:23;11.80;99.90
59067;DHT22;44854;50.838;4.438;2023-12-29T11:10:49;11.80;99.90
59067;DHT22;44854;50.838;4.438;2023-12-29T11:13:16;11.90;99.90
59067;DHT22;44854;50.838;4.438;2023-12-29T11:15:44;11.90;99.90
59067;DHT22;44854;50.838;4.438;2023-12-29T11:18:15;12.10;99.90
59067;DHT22;44854;50.838;4.438;2023-12-29T11:20:42;12.00;99.90
59067;DHT22;44854;50.838;4.438;2023-12-29T11:23:09;12.00;99.90
59067;DHT22;44854;50.838;4.438;2023-12-29T11:25:35;12.10;99.90
59067;DHT22;44854;50.838;4.438;2023-12-29T11:28:01;12.00;99.90
59067;DHT22;44854;50.838;4.438;2023-12-29T11:30:27;12.00;99.90
59067;DHT22;44854;50.838;4.438;2023-12-29T11:36:12;12.10;99.90
59067;DHT22;44854;50.838;4.438;2023-12-29T11:38:43;12.10;99.90
59067;DHT22;44854;50.838;4.438;2023-12-29T11:41:21;12.20;99.90
59067;DHT22;44854;50.838;4.438;2023-12-29T11:43:58;12.20;99.90
59067;DHT22;44854;50.838;4.438;2023-12-29T11:46:40;12.20;99.90
59067;DHT22;44854;50.838;4.438;2023-12-29T11:49:08;12.30;99.90
59067;DHT22;44854;50.838;4.438;2023-12-29T11:51:42;12.20;99.90
59067;DHT22;44854;50.838;4.438;2023-12-29T11:54:24;12.10;99.90
59067;DHT22;44854;50.838;4.438;2023-12-29T11:56:50;12.00;99.90
59067;DHT22;44854;50.838;4.438;2023-12-29T11:59:23;12.00;99.90
59067;DHT22;44854;50.838;4.438;2023-12-29T12:01:50;12.00;99.90
59067;DHT22;44854;50.838;4.438;2023-12-29T12:04:35;12.10;99.90
59067;DHT22;44854;50.838;4.438;2023-12-29T12:07:07;12.00;99.90
59067;DHT22;44854;50.838;4.438;2023-12-29T12:09:34;11.90;99.90
59067;DHT22;44854;50.838;4.438;2023-12-29T12:12:01;11.90;99.90
59067;DHT22;44854;50.838;4.438;2023-12-29T12:14:43;11.90;99.90
59067;DHT22;44854;50.838;4.438;2023-12-29T12:17:10;11.80;99.90
59067;DHT22;44854;50.838;4.438;2023-12-29T12:19:36;11.70;99.90
59067;DHT22;44854;50.838;4.438;2023-12-29T12:22:02;11.70;99.90
59067;DHT22;44854;50.838;4.438;2023-12-29T12:24:28;11.80;99.90
59067;DHT22;44854;50.838;4.438;2023-12-29T12:26:54;11.90;99.90
59067;DHT22;44854;50.838;4.438;2023-12-29T12:29:20;11.90;99.90
59067;DHT22;44854;50.838;4.438;2023-12-29T12:31:53;11.90;99.90
59067;DHT22;44854;50.838;4.438;2023-12-29T12:34:19;12.00;99.90
59067;DHT22;44854;50.838;4.438;2023-12-29T12:36:52;12.00;99.90
59067;DHT22;44854;50.838;4.438;2023-12-29T12:39:18;12.00;99.90
59067;DHT22;44854;50.838;4.438;2023-12-29T12:41:44;11.80;99.90
59067;DHT22;44854;50.838;4.438;2023-12-29T12:44:12;11.70;99.90
59067;DHT22;44854;50.838;4.438;2023-12-29T12:46:57;11.80;99.90
59067;DHT22;44854;50.838;4.438;2023-12-29T12:49:23;11.90;99.90
59067;DHT22;44854;50.838;4.438;2023-12-29T12:51:50;11.80;99.90
59067;DHT22;44854;50.838;4.438;2023-12-29T12:54:19;11.80;99.90
59067;DHT22;44854;50.838;4.438;2023-12-29T12:56:46;11.60;99.90
59067;DHT22;44854;50.838;4.438;2023-12-29T12:59:13;11.60;99.90
59067;DHT22;44854;50.838;4.438;2023-12-29T13:01:39;11.60;99.90
59067;DHT22;44854;50.838;4.438;2023-12-29T13:04:05;11.60;99.90
59067;DHT22;44854;50.838;4.438;2023-12-29T13:06:32;11.60;99.90
59067;DHT22;44854;50.838;4.438;2023-12-29T13:08:58;11.60;99.90
59067;DHT22;44854;50.838;4.438;2023-12-29T13:11:24;11.60;99.90
59067;DHT22;44854;50.838;4.438;2023-12-29T13:13:51;11.70;99.90
59067;DHT22;44854;50.838;4.438;2023-12-29T13:16:51;11.90;99.90
59067;DHT22;44854;50.838;4.438;2023-12-29T13:19:22;11.70;99.90
59067;DHT22;44854;50.838;4.438;2023-12-29T13:21:51;11.70;99.90
59067;DHT22;44854;50.838;4.438;2023-12-29T13:24:23;11.50;99.90
59067;DHT22;44854;50.838;4.438;2023-12-29T13:27:11;11.50;99.90
59067;DHT22;44854;50.838;4.438;2023-12-29T13:29:38;11.60;99.90
59067;DHT22;44854;50.838;4.438;2023-12-29T13:32:16;11.70;99.90
59067;DHT22;44854;50.838;4.438;2023-12-29T13:37:55;11.80;99.90
59067;DHT22;44854;50.838;4.438;2023-12-29T13:43:11;11.80;99.90
59067;DHT22;44854;50.838;4.438;2023-12-29T13:45:40;11.90;99.90
59067;DHT22;44854;50.838;4.438;2023-12-29T13:48:07;12.00;99.90
59067;DHT22;44854;50.838;4.438;2023-12-29T13:50:33;12.00;99.90
59067;DHT22;44854;50.838;4.438;2023-12-29T13:52:59;11.90;99.90
59067;DHT22;44854;50.838;4.438;2023-12-29T13:55:25;11.90;99.90
59067;DHT22;44854;50.838;4.438;2023-12-29T13:57:51;11.90;99.90
59067;DHT22;44854;50.838;4.438;2023-12-29T14:00:22;11.90;99.90
59067;DHT22;44854;50.838;4.438;2023-12-29T14:02:58;11.80;99.90
59067;DHT22;44854;50.838;4.438;2023-12-29T14:05:31;11.90;99.90
59067;DHT22;44854;50.838;4.438;2023-12-29T14:08:08;11.90;99.90
59067;DHT22;44854;50.838;4.438;2023-12-29T14:10:36;11.80;99.90
59067;DHT22;44854;50.838;4.438;2023-12-29T14:13:12;11.80;99.90
59067;DHT22;44854;50.838;4.438;2023-12-29T14:15:40;11.70;99.90
59067;DHT22;44854;50.838;4.438;2023-12-29T14:18:22;11.70;99.90
59067;DHT22;44854;50.838;4.438;2023-12-29T14:20:54;11.80;99.90
59067;DHT22;44854;50.838;4.438;2023-12-29T14:23:20;11.80;99.90
59067;DHT22;44854;50.838;4.438;2023-12-29T14:25:46;11.90;99.90
59067;DHT22;44854;50.838;4.438;2023-12-29T14:28:16;11.80;99.90
59067;DHT22;44854;50.838;4.438;2023-12-29T14:30:43;11.80;99.90
59067;DHT22;44854;50.838;4.438;2023-12-29T14:33:08;11.80;99.90
59067;DHT22;44854;50.838;4.438;2023-12-29T14:35:34;11.70;99.90
59067;DHT22;44854;50.838;4.438;2023-12-29T14:38:01;11.60;99.90
59067;DHT22;44854;50.838;4.438;2023-12-29T14:40:27;11.60;99.90
59067;DHT22;44854;50.838;4.438;2023-12-29T14:42:53;11.50;99.90
59067;DHT22;44854;50.838;4.438;2023-12-29T14:45:18;11.50;99.90
59067;DHT22;44854;50.838;4.438;2023-12-29T14:47:44;11.50;99.90
59067;DHT22;44854;50.838;4.438;2023-12-29T14:50:14;11.50;99.90
59067;DHT22;44854;50.838;4.438;2023-12-29T14:52:40;11.50;99.90
59067;DHT22;44854;50.838;4.438;2023-12-29T14:55:06;11.50;99.90
59067;DHT22;44854;50.838;4.438;2023-12-29T14:57:32;11.60;99.90
59067;DHT22;44854;50.838;4.438;2023-12-29T14:59:58;11.60;99.90
59067;DHT22;44854;50.838;4.438;2023-12-29T15:02:23;11.60;99.90
59067;DHT22;44854;50.838;4.438;2023-12-29T15:04:49;11.70;99.90
59067;DHT22;44854;50.838;4.438;2023-12-29T15:07:19;11.60;99.90
59067;DHT22;44854;50.838;4.438;2023-12-29T15:09:44;11.60;99.90
59067;DHT22;44854;50.838;4.438;2023-12-29T15:12:13;11.60;99.90
59067;DHT22;44854;50.838;4.438;2023-12-29T15:14:39;11.50;99.90
59067;DHT22;44854;50.838;4.438;2023-12-29T15:17:05;11.50;99.90
59067;DHT22;44854;50.838;4.438;2023-12-29T15:19:33;11.50;99.90
59067;DHT22;44854;50.838;4.438;2023-12-29T15:22:01;11.70;99.90
59067;DHT22;44854;50.838;4.438;2023-12-29T15:24:26;11.70;99.90
59067;DHT22;44854;50.838;4.438;2023-12-29T15:26:52;11.70;99.90
59067;DHT22;44854;50.838;4.438;2023-12-29T15:29:17;11.70;99.90
59067;DHT22;44854;50.838;4.438;2023-12-29T15:31:44;11.70;99.90
59067;DHT22;44854;50.838;4.438;2023-12-29T15:34:11;11.80;99.90
59067;DHT22;44854;50.838;4.438;2023-12-29T15:36:37;11.80;99.90
59067;DHT22;44854;50.838;4.438;2023-12-29T15:39:02;11.80;99.90
59067;DHT22;44854;50.838;4.438;2023-12-29T15:41:32;11.80;99.90
59067;DHT22;44854;50.838;4.438;2023-12-29T15:43:58;11.80;99.90
59067;DHT22;44854;50.838;4.438;2023-12-29T15:46:24;11.80;99.90
59067;DHT22;44854;50.838;4.438;2023-12-29T15:48:50;11.90;99.90
59067;DHT22;44854;50.838;4.438;2023-12-29T15:51:15;11.80;99.90
59067;DHT22;44854;50.838;4.438;2023-12-29T15:53:41;11.80;99.90
59067;DHT22;44854;50.838;4.438;2023-12-29T15:56:08;11.70;99.90
59067;DHT22;44854;50.838;4.438;2023-12-29T15:58:34;11.70;99.90
59067;DHT22;44854;50.838;4.438;2023-12-29T16:00:59;11.60;99.90
59067;DHT22;44854;50.838;4.438;2023-12-29T16:03:25;11.60;99.90
59067;DHT22;44854;50.838;4.438;2023-12-29T16:05:51;11.50;99.90
59067;DHT22;44854;50.838;4.438;2023-12-29T16:08:17;11.50;99.90
59067;DHT22;44854;50.838;4.438;2023-12-29T16:10:42;11.40;99.90
59067;DHT22;44854;50.838;4.438;2023-12-29T16:13:08;11.40;99.90
59067;DHT22;44854;50.838;4.438;2023-12-29T16:15:34;11.30;99.90
59067;DHT22;44854;50.838;4.438;2023-12-29T16:18:13;11.30;99.90
59067;DHT22;44854;50.838;4.438;2023-12-29T16:20:39;11.30;99.90
59067;DHT22;44854;50.838;4.438;2023-12-29T16:23:04;11.20;99.90
59067;DHT22;44854;50.838;4.438;2023-12-29T16:25:30;11.20;99.90
59067;DHT22;44854;50.838;4.438;2023-12-29T16:27:56;11.10;99.90
59067;DHT22;44854;50.838;4.438;2023-12-29T16:30:21;11.10;99.90
59067;DHT22;44854;50.838;4.438;2023-12-29T16:32:47;11.10;99.90
59067;DHT22;44854;50.838;4.438;2023-12-29T16:35:13;11.10;99.90
59067;DHT22;44854;50.838;4.438;2023-12-29T16:37:38;11.10;99.90
59067;DHT22;44854;50.838;4.438;2023-12-29T16:40:05;11.10;99.90
59067;DHT22;44854;50.838;4.438;2023-12-29T16:42:32;11.20;99.90
59067;DHT22;44854;50.838;4.438;2023-12-29T16:44:58;11.20;99.90
59067;DHT22;44854;50.838;4.438;2023-12-29T16:47:24;11.10;99.90
59067;DHT22;44854;50.838;4.438;2023-12-29T16:49:49;11.20;99.90
59067;DHT22;44854;50.838;4.438;2023-12-29T16:52:16;11.20;99.90
59067;DHT22;44854;50.838;4.438;2023-12-29T16:54:42;11.20;99.90
59067;DHT22;44854;50.838;4.438;2023-12-29T16:57:07;11.30;99.90
59067;DHT22;44854;50.838;4.438;2023-12-29T16:59:33;11.30;99.90
59067;DHT22;44854;50.838;4.438;2023-12-29T17:01:59;11.30;99.90
59067;DHT22;44854;50.838;4.438;2023-12-29T17:04:27;11.30;99.90
59067;DHT22;44854;50.838;4.438;2023-12-29T17:06:53;11.30;99.90
59067;DHT22;44854;50.838;4.438;2023-12-29T17:09:20;11.30;99.90
59067;DHT22;44854;50.838;4.438;2023-12-29T17:11:45;11.30;99.90
59067;DHT22;44854;50.838;4.438;2023-12-29T17:14:11;11.30;99.90
59067;DHT22;44854;50.838;4.438;2023-12-29T17:16:42;11.40;99.90
59067;DHT22;44854;50.838;4.438;2023-12-29T17:19:10;11.40;99.90
59067;DHT22;44854;50.838;4.438;2023-12-29T17:21:36;11.40;99.90
59067;DHT22;44854;50.838;4.438;2023-12-29T17:24:02;11.40;99.90
59067;DHT22;44854;50.838;4.438;2023-12-29T17:26:28;11.40;99.90
59067;DHT22;44854;50.838;4.438;2023-12-29T17:28:55;11.40;99.90
59067;DHT22;44854;50.838;4.438;2023-12-29T17:31:20;11.30;99.90
59067;DHT22;44854;50.838;4.438;2023-12-29T17:33:46;11.30;99.90
59067;DHT22;44854;50.838;4.438;2023-12-29T17:36:13;11.30;99.90
59067;DHT22;44854;50.838;4.438;2023-12-29T17:38:39;11.20;99.90
59067;DHT22;44854;50.838;4.438;2023-12-29T17:41:07;11.30;99.90
59067;DHT22;44854;50.838;4.438;2023-12-29T17:43:33;11.30;99.90
59067;DHT22;44854;50.838;4.438;2023-12-29T17:46:03;11.30;99.90
59067;DHT22;44854;50.838;4.438;2023-12-29T17:48:32;11.20;99.90
59067;DHT22;44854;50.838;4.438;2023-12-29T17:50:58;11.20;99.90
59067;DHT22;44854;50.838;4.438;2023-12-29T17:53:24;11.20;99.90
59067;DHT22;44854;50.838;4.438;2023-12-29T17:55:50;11.20;99.90
59067;DHT22;44854;50.838;4.438;2023-12-29T17:58:16;11.10;99.90
59067;DHT22;44854;50.838;4.438;2023-12-29T18:00:41;11.10;99.90
59067;DHT22;44854;50.838;4.438;2023-12-29T18:03:08;11.10;99.90
59067;DHT22;44854;50.838;4.438;2023-12-29T18:05:34;11.10;99.90
59067;DHT22;44854;50.838;4.438;2023-12-29T18:08:00;11.10;99.90
59067;DHT22;44854;50.838;4.438;2023-12-29T18:10:26;11.10;99.90
59067;DHT22;44854;50.838;4.438;2023-12-29T18:12:52;11.20;99.90
59067;DHT22;44854;50.838;4.438;2023-12-29T18:15:18;11.20;99.90
59067;DHT22;44854;50.838;4.438;2023-12-29T18:17:43;11.10;99.90
59067;DHT22;44854;50.838;4.438;2023-12-29T18:20:09;11.10;99.90
59067;DHT22;44854;50.838;4.438;2023-12-29T18:22:39;11.20;99.90
59067;DHT22;44854;50.838;4.438;2023-12-29T18:25:05;11.10;99.90
59067;DHT22;44854;50.838;4.438;2023-12-29T18:27:31;11.00;99.90
59067;DHT22;44854;50.838;4.438;2023-12-29T18:29:58;11.00;99.90
59067;DHT22;44854;50.838;4.438;2023-12-29T18:32:24;11.00;99.90
59067;DHT22;44854;50.838;4.438;2023-12-29T18:34:50;10.90;99.90
59067;DHT22;44854;50.838;4.438;2023-12-29T18:37:16;10.90;99.90
59067;DHT22;44854;50.838;4.438;2023-12-29T18:39:42;10.90;99.90
59067;DHT22;44854;50.838;4.438;2023-12-29T18:42:09;10.90;99.90
59067;DHT22;44854;50.838;4.438;2023-12-29T18:44:38;10.90;99.90
59067;DHT22;44854;50.838;4.438;2023-12-29T18:47:04;10.90;99.90
59067;DHT22;44854;50.838;4.438;2023-12-29T18:49:29;11.00;99.90
59067;DHT22;44854;50.838;4.438;2023-12-29T18:51:55;11.00;99.90
59067;DHT22;44854;50.838;4.438;2023-12-29T18:54:22;11.00;99.90
59067;DHT22;44854;50.838;4.438;2023-12-29T18:56:47;11.00;99.90
59067;DHT22;44854;50.838;4.438;2023-12-29T18:59:13;11.00;99.90
59067;DHT22;44854;50.838;4.438;2023-12-29T19:01:46;10.90;99.90
59067;DHT22;44854;50.838;4.438;2023-12-29T19:04:12;10.80;99.90
59067;DHT22;44854;50.838;4.438;2023-12-29T19:06:38;10.80;99.90
59067;DHT22;44854;50.838;4.438;2023-12-29T19:09:03;10.80;99.90
59067;DHT22;44854;50.838;4.438;2023-12-29T19:11:29;10.90;99.90
59067;DHT22;44854;50.838;4.438;2023-12-29T19:13:55;10.80;99.90
59067;DHT22;44854;50.838;4.438;2023-12-29T19:16:22;10.80;99.90
59067;DHT22;44854;50.838;4.438;2023-12-29T19:18:48;10.80;99.90
59067;DHT22;44854;50.838;4.438;2023-12-29T19:21:14;10.80;99.90
59067;DHT22;44854;50.838;4.438;2023-12-29T19:23:40;10.80;99.90
59067;DHT22;44854;50.838;4.438;2023-12-29T19:26:06;10.70;99.90
59067;DHT22;44854;50.838;4.438;2023-12-29T19:28:31;10.70;99.90
59067;DHT22;44854;50.838;4.438;2023-12-29T19:30:59;10.60;99.90
59067;DHT22;44854;50.838;4.438;2023-12-29T19:33:24;10.70;99.90
59067;DHT22;44854;50.838;4.438;2023-12-29T19:35:50;10.70;99.90
59067;DHT22;44854;50.838;4.438;2023-12-29T19:38:16;10.70;99.90
59067;DHT22;44854;50.838;4.438;2023-12-29T19:40:42;10.60;99.90
59067;DHT22;44854;50.838;4.438;2023-12-29T19:43:10;10.60;99.90
59067;DHT22;44854;50.838;4.438;2023-12-29T19:45:39;10.70;99.90
59067;DHT22;44854;50.838;4.438;2023-12-29T19:48:05;10.70;99.90
59067;DHT22;44854;50.838;4.438;2023-12-29T19:50:31;10.80;99.90
59067;DHT22;44854;50.838;4.438;2023-12-29T19:52:57;10.70;99.90
59067;DHT22;44854;50.838;4.438;2023-12-29T19:55:23;10.70;99.90
59067;DHT22;44854;50.838;4.438;2023-12-29T19:57:49;10.70;99.90
59067;DHT22;44854;50.838;4.438;2023-12-29T20:00:14;10.70;99.90
59067;DHT22;44854;50.838;4.438;2023-12-29T20:02:40;10.70;99.90
59067;DHT22;44854;50.838;4.438;2023-12-29T20:05:06;10.70;99.90
59067;DHT22;44854;50.838;4.438;2023-12-29T20:07:32;10.60;99.90
59067;DHT22;44854;50.838;4.438;2023-12-29T20:09:58;10.70;99.90
59067;DHT22;44854;50.838;4.438;2023-12-29T20:12:23;10.70;99.90
59067;DHT22;44854;50.838;4.438;2023-12-29T20:14:49;10.70;99.90
59067;DHT22;44854;50.838;4.438;2023-12-29T20:17:17;10.70;99.90
59067;DHT22;44854;50.838;4.438;2023-12-29T20:19:42;10.60;99.90
59067;DHT22;44854;50.838;4.438;2023-12-29T20:22:08;10.60;99.90
59067;DHT22;44854;50.838;4.438;2023-12-29T20:24:39;10.60;99.90
59067;DHT22;44854;50.838;4.438;2023-12-29T20:27:05;10.60;99.90
59067;DHT22;44854;50.838;4.438;2023-12-29T20:29:30;10.50;99.90
59067;DHT22;44854;50.838;4.438;2023-12-29T20:31:57;10.60;99.90
59067;DHT22;44854;50.838;4.438;2023-12-29T20:34:23;10.50;99.90
59067;DHT22;44854;50.838;4.438;2023-12-29T20:36:49;10.60;99.90
59067;DHT22;44854;50.838;4.438;2023-12-29T20:39:15;10.50;99.90
59067;DHT22;44854;50.838;4.438;2023-12-29T20:41:40;10.50;99.90
59067;DHT22;44854;50.838;4.438;2023-12-29T20:44:07;10.40;99.90
59067;DHT22;44854;50.838;4.438;2023-12-29T20:46:32;10.40;99.90
59067;DHT22;44854;50.838;4.438;2023-12-29T20:48:58;10.30;99.90
59067;DHT22;44854;50.838;4.438;2023-12-29T20:51:25;10.30;99.90
59067;DHT22;44854;50.838;4.438;2023-12-29T20:53:52;10.30;99.90
59067;DHT22;44854;50.838;4.438;2023-12-29T20:56:18;10.30;99.90
59067;DHT22;44854;50.838;4.438;2023-12-29T20:58:43;10.30;99.90
59067;DHT22;44854;50.838;4.438;2023-12-29T21:01:13;10.30;99.90
59067;DHT22;44854;50.838;4.438;2023-12-29T21:03:39;10.30;99.90
59067;DHT22;44854;50.838;4.438;2023-12-29T21:06:07;10.30;99.90
59067;DHT22;44854;50.838;4.438;2023-12-29T21:08:34;10.30;99.90
59067;DHT22;44854;50.838;4.438;2023-12-29T21:11:00;10.20;99.90
59067;DHT22;44854;50.838;4.438;2023-12-29T21:13:26;10.20;99.90
59067;DHT22;44854;50.838;4.438;2023-12-29T21:15:52;10.20;99.90
59067;DHT22;44854;50.838;4.438;2023-12-29T21:18:19;10.30;99.90
59067;DHT22;44854;50.838;4.438;2023-12-29T21:20:45;10.30;99.90
59067;DHT22;44854;50.838;4.438;2023-12-29T21:23:10;10.30;99.90
59067;DHT22;44854;50.838;4.438;2023-12-29T21:25:36;10.40;99.90